sensor_id;sensor_type;location;lat;lon;timestamp;P1;P2;P0
73687;PMS7003;62257;48.376;-4.378;2022-08-19T09:30:19;0.25;0.25;0.00
73687;PMS7003;62257;48.376;-4.378;2022-08-19T09:32:47;0.25;0.25;0.00
73687;PMS7003;62257;48.376;-4.378;2022-08-19T09:35:13;0.75;0.50;0.00
73687;PMS7003;62257;48.376;-4.378;2022-08-19T09:37:40;0.00;0.00;0.00
73687;PMS7003;62257;48.376;-4.378;2022-08-19T09:40:07;0.00;0.00;0.00
73687;PMS7003;62257;48.376;-4.378;2022-08-19T09:42:33;0.00;0.00;0.00
73687;PMS7003;62257;48.376;-4.378;2022-08-19T09:44:59;0.00;0.00;0.00
73687;PMS7003;62257;48.376;-4.378;2022-08-19T09:47:25;0.00;0.00;0.00
73687;PMS7003;62257;48.376;-4.378;2022-08-19T09:49:50;0.00;0.00;0.00
73687;PMS7003;62257;48.376;-4.378;2022-08-19T09:52:15;0.00;0.00;0.00
73687;PMS7003;62257;48.376;-4.378;2022-08-19T09:54:41;0.00;0.00;0.00
73687;PMS7003;62257;48.376;-4.378;2022-08-19T09:57:07;0.75;0.75;0.75
73687;PMS7003;62257;48.376;-4.378;2022-08-19T09:59:32;0.25;0.25;0.25
73687;PMS7003;62257;48.376;-4.378;2022-08-19T10:01:58;1.50;0.00;0.00
73687;PMS7003;62257;48.376;-4.378;2022-08-19T10:04:24;0.00;0.00;0.00
73687;PMS7003;62257;48.376;-4.378;2022-08-19T10:07:10;0.75;0.00;0.00
73687;PMS7003;62257;48.376;-4.378;2022-08-19T10:09:36;0.00;0.00;0.00
73687;PMS7003;62257;48.376;-4.378;2022-08-19T10:12:02;0.00;0.00;0.00
73687;PMS7003;62257;48.376;-4.378;2022-08-19T10:14:29;0.00;0.00;0.00
73687;PMS7003;62257;48.376;-4.378;2022-08-19T10:16:55;0.50;0.50;0.50
73687;PMS7003;62257;48.376;-4.378;2022-08-19T10:19:21;0.50;0.50;0.50
73687;PMS7003;62257;48.376;-4.378;2022-08-19T10:21:46;2.00;1.00;1.00
73687;PMS7003;62257;48.376;-4.378;2022-08-19T10:24:12;1.00;1.00;0.00
73687;PMS7003;62257;48.376;-4.378;2022-08-19T10:26:38;0.50;0.00;0.00
73687;PMS7003;62257;48.376;-4.378;2022-08-19T10:29:06;1.00;1.00;1.00
73687;PMS7003;62257;48.376;-4.378;2022-08-19T10:31:32;0.00;0.00;0.00
73687;PMS7003;62257;48.376;-4.378;2022-08-19T10:33:59;0.25;0.25;0.25
73687;PMS7003;62257;48.376;-4.378;2022-08-19T10:36:27;0.00;0.00;0.00
73687;PMS7003;62257;48.376;-4.378;2022-08-19T10:38:56;0.25;0.00;0.00
73687;PMS7003;62257;48.376;-4.378;2022-08-19T10:41:30;0.25;0.00;0.00
73687;PMS7003;62257;48.376;-4.378;2022-08-19T10:43:58;1.00;1.00;1.00
73687;PMS7003;62257;48.376;-4.378;2022-08-19T10:46:27;1.50;1.50;1.00
73687;PMS7003;62257;48.376;-4.378;2022-08-19T10:48:53;0.50;0.50;0.50
73687;PMS7003;62257;48.376;-4.378;2022-08-19T10:51:20;2.25;0.00;0.00
73687;PMS7003;62257;48.376;-4.378;2022-08-19T10:54:04;3.00;1.00;1.00
73687;PMS7003;62257;48.376;-4.378;2022-08-19T10:56:30;1.25;1.00;1.00
73687;PMS7003;62257;48.376;-4.378;2022-08-19T10:59:16;2.00;1.00;1.00
73687;PMS7003;62257;48.376;-4.378;2022-08-19T11:01:44;1.25;1.00;0.25
73687;PMS7003;62257;48.376;-4.378;2022-08-19T11:04:10;1.75;1.75;1.00
73687;PMS7003;62257;48.376;-4.378;2022-08-19T11:06:39;1.50;1.00;1.00
73687;PMS7003;62257;48.376;-4.378;2022-08-19T11:09:05;3.00;1.25;1.00
73687;PMS7003;62257;48.376;-4.378;2022-08-19T11:11:31;2.00;1.00;1.00
73687;PMS7003;62257;48.376;-4.378;2022-08-19T11:14:05;4.00;2.00;2.00
73687;PMS7003;62257;48.376;-4.378;2022-08-19T11:16:31;2.50;1.25;1.00
73687;PMS7003;62257;48.376;-4.378;2022-08-19T11:18:58;2.50;1.75;1.50
73687;PMS7003;62257;48.376;-4.378;2022-08-19T11:21:25;1.00;1.00;1.00
73687;PMS7003;62257;48.376;-4.378;2022-08-19T11:23:59;4.50;2.00;1.00
73687;PMS7003;62257;48.376;-4.378;2022-08-19T11:26:27;2.00;2.00;2.00
73687;PMS7003;62257;48.376;-4.378;2022-08-19T11:28:54;3.75;1.50;1.50
73687;PMS7003;62257;48.376;-4.378;2022-08-19T11:31:23;3.75;1.25;0.75
73687;PMS7003;62257;48.376;-4.378;2022-08-19T11:33:51;2.00;2.00;1.00
73687;PMS7003;62257;48.376;-4.378;2022-08-19T11:36:20;3.50;2.00;1.25
73687;PMS7003;62257;48.376;-4.378;2022-08-19T11:38:49;1.50;1.50;1.00
73687;PMS7003;62257;48.376;-4.378;2022-08-19T11:41:16;4.25;2.00;1.25
73687;PMS7003;62257;48.376;-4.378;2022-08-19T11:43:43;2.00;2.00;1.50
73687;PMS7003;62257;48.376;-4.378;2022-08-19T11:46:13;2.25;2.25;1.00
73687;PMS7003;62257;48.376;-4.378;2022-08-19T11:48:39;1.00;1.00;0.75
73687;PMS7003;62257;48.376;-4.378;2022-08-19T11:51:06;4.75;0.75;0.25
73687;PMS7003;62257;48.376;-4.378;2022-08-19T11:53:34;3.75;1.00;1.00
73687;PMS7003;62257;48.376;-4.378;2022-08-19T11:56:01;1.50;1.50;1.00
73687;PMS7003;62257;48.376;-4.378;2022-08-19T11:58:27;1.75;0.25;0.00
73687;PMS7003;62257;48.376;-4.378;2022-08-19T12:00:54;1.00;1.00;0.00
73687;PMS7003;62257;48.376;-4.378;2022-08-19T12:03:19;2.50;2.50;2.00
73687;PMS7003;62257;48.376;-4.378;2022-08-19T12:05:45;1.00;1.00;1.00
73687;PMS7003;62257;48.376;-4.378;2022-08-19T12:08:11;1.25;1.25;1.00
73687;PMS7003;62257;48.376;-4.378;2022-08-19T12:10:38;2.00;2.00;1.25
73687;PMS7003;62257;48.376;-4.378;2022-08-19T12:13:05;1.00;1.00;0.75
73687;PMS7003;62257;48.376;-4.378;2022-08-19T12:15:35;1.50;0.75;0.50
73687;PMS7003;62257;48.376;-4.378;2022-08-19T12:18:05;1.00;1.00;1.00
73687;PMS7003;62257;48.376;-4.378;2022-08-19T12:20:35;1.75;1.75;1.00
73687;PMS7003;62257;48.376;-4.378;2022-08-19T12:23:03;3.00;1.75;1.00
73687;PMS7003;62257;48.376;-4.378;2022-08-19T12:25:29;1.00;1.00;0.00
73687;PMS7003;62257;48.376;-4.378;2022-08-19T12:27:56;1.75;1.75;1.00
73687;PMS7003;62257;48.376;-4.378;2022-08-19T12:30:21;2.00;0.50;0.00
73687;PMS7003;62257;48.376;-4.378;2022-08-19T12:32:47;1.00;1.00;1.00
73687;PMS7003;62257;48.376;-4.378;2022-08-19T12:35:12;2.00;1.00;1.00
73687;PMS7003;62257;48.376;-4.378;2022-08-19T12:37:38;2.00;0.25;0.00
73687;PMS7003;62257;48.376;-4.378;2022-08-19T12:40:09;1.00;0.00;0.00
73687;PMS7003;62257;48.376;-4.378;2022-08-19T12:42:36;3.25;1.00;1.00
73687;PMS7003;62257;48.376;-4.378;2022-08-19T12:45:06;0.50;0.50;0.50
73687;PMS7003;62257;48.376;-4.378;2022-08-19T12:47:31;5.00;1.00;0.75
73687;PMS7003;62257;48.376;-4.378;2022-08-19T12:49:57;3.00;1.00;1.00
73687;PMS7003;62257;48.376;-4.378;2022-08-19T12:52:23;1.50;1.50;1.00
73687;PMS7003;62257;48.376;-4.378;2022-08-19T12:54:50;1.75;1.50;1.00
73687;PMS7003;62257;48.376;-4.378;2022-08-19T12:57:16;1.25;1.25;1.00
73687;PMS7003;62257;48.376;-4.378;2022-08-19T12:59:42;4.25;2.00;2.00
73687;PMS7003;62257;48.376;-4.378;2022-08-19T13:02:07;1.25;1.25;1.00
73687;PMS7003;62257;48.376;-4.378;2022-08-19T13:04:34;1.75;1.00;1.00
73687;PMS7003;62257;48.376;-4.378;2022-08-19T13:07:06;1.00;1.00;0.75
73687;PMS7003;62257;48.376;-4.378;2022-08-19T13:09:33;1.00;1.00;1.00
73687;PMS7003;62257;48.376;-4.378;2022-08-19T13:11:58;1.50;1.00;0.50
73687;PMS7003;62257;48.376;-4.378;2022-08-19T13:14:25;2.00;2.00;1.75
73687;PMS7003;62257;48.376;-4.378;2022-08-19T13:16:51;2.25;1.00;1.00
73687;PMS7003;62257;48.376;-4.378;2022-08-19T13:19:16;3.50;2.25;1.25
73687;PMS7003;62257;48.376;-4.378;2022-08-19T13:21:45;1.00;1.00;0.75
73687;PMS7003;62257;48.376;-4.378;2022-08-19T13:24:14;2.00;1.75;1.00
73687;PMS7003;62257;48.376;-4.378;2022-08-19T13:26:40;2.00;2.00;1.25
73687;PMS7003;62257;48.376;-4.378;2022-08-19T13:29:05;2.75;2.75;2.00
73687;PMS7003;62257;48.376;-4.378;2022-08-19T13:31:50;4.50;1.50;1.00
73687;PMS7003;62257;48.376;-4.378;2022-08-19T13:34:34;3.00;1.50;1.00
73687;PMS7003;62257;48.376;-4.378;2022-08-19T13:37:01;2.00;1.00;0.75
73687;PMS7003;62257;48.376;-4.378;2022-08-19T13:39:28;3.25;1.75;1.00
73687;PMS7003;62257;48.376;-4.378;2022-08-19T13:41:58;1.00;0.75;0.00
73687;PMS7003;62257;48.376;-4.378;2022-08-19T13:44:25;1.50;1.50;1.00
73687;PMS7003;62257;48.376;-4.378;2022-08-19T13:46:51;1.75;1.50;1.50
73687;PMS7003;62257;48.376;-4.378;2022-08-19T13:49:17;3.25;1.50;1.00
73687;PMS7003;62257;48.376;-4.378;2022-08-19T13:51:43;2.50;2.25;1.75
73687;PMS7003;62257;48.376;-4.378;2022-08-19T13:54:10;2.00;1.00;1.00
73687;PMS7003;62257;48.376;-4.378;2022-08-19T13:56:40;3.50;2.00;1.00
73687;PMS7003;62257;48.376;-4.378;2022-08-19T13:59:09;2.00;1.25;1.00
73687;PMS7003;62257;48.376;-4.378;2022-08-19T14:01:36;2.00;2.00;1.00
73687;PMS7003;62257;48.376;-4.378;2022-08-19T14:04:03;1.00;1.00;1.00
73687;PMS7003;62257;48.376;-4.378;2022-08-19T14:06:30;2.00;2.00;1.00
73687;PMS7003;62257;48.376;-4.378;2022-08-19T14:08:56;2.00;2.00;2.00
73687;PMS7003;62257;48.376;-4.378;2022-08-19T14:11:21;2.00;1.50;1.25
73687;PMS7003;62257;48.376;-4.378;2022-08-19T14:13:48;3.00;2.00;2.00
73687;PMS7003;62257;48.376;-4.378;2022-08-19T14:16:13;2.25;1.75;1.50
73687;PMS7003;62257;48.376;-4.378;2022-08-19T14:18:39;5.00;2.75;2.00
73687;PMS7003;62257;48.376;-4.378;2022-08-19T14:21:06;4.25;2.00;2.00
73687;PMS7003;62257;48.376;-4.378;2022-08-19T14:23:32;2.00;2.00;1.50
73687;PMS7003;62257;48.376;-4.378;2022-08-19T14:26:09;1.50;1.00;0.75
73687;PMS7003;62257;48.376;-4.378;2022-08-19T14:28:37;1.00;1.00;1.00
73687;PMS7003;62257;48.376;-4.378;2022-08-19T14:31:04;3.00;1.00;1.00
73687;PMS7003;62257;48.376;-4.378;2022-08-19T14:33:29;1.00;1.00;1.00
73687;PMS7003;62257;48.376;-4.378;2022-08-19T14:35:55;2.00;1.00;0.75
73687;PMS7003;62257;48.376;-4.378;2022-08-19T14:38:20;2.25;1.75;1.00
73687;PMS7003;62257;48.376;-4.378;2022-08-19T14:40:46;2.00;2.00;2.00
73687;PMS7003;62257;48.376;-4.378;2022-08-19T14:43:11;1.00;1.00;1.00
73687;PMS7003;62257;48.376;-4.378;2022-08-19T14:45:37;2.00;2.00;1.25
73687;PMS7003;62257;48.376;-4.378;2022-08-19T14:48:04;3.00;1.00;1.00
73687;PMS7003;62257;48.376;-4.378;2022-08-19T14:50:30;2.50;1.25;1.25
73687;PMS7003;62257;48.376;-4.378;2022-08-19T14:52:57;1.50;1.00;1.00
73687;PMS7003;62257;48.376;-4.378;2022-08-19T14:55:28;1.00;1.00;1.00
73687;PMS7003;62257;48.376;-4.378;2022-08-19T14:57:54;1.00;1.00;1.00
73687;PMS7003;62257;48.376;-4.378;2022-08-19T15:00:20;2.25;1.25;1.00
73687;PMS7003;62257;48.376;-4.378;2022-08-19T15:02:45;1.75;0.50;0.25
73687;PMS7003;62257;48.376;-4.378;2022-08-19T15:05:11;2.00;1.00;0.75
73687;PMS7003;62257;48.376;-4.378;2022-08-19T15:07:37;2.00;1.00;0.25
73687;PMS7003;62257;48.376;-4.378;2022-08-19T15:10:04;3.00;1.25;1.00
73687;PMS7003;62257;48.376;-4.378;2022-08-19T15:12:32;2.00;1.00;0.25
73687;PMS7003;62257;48.376;-4.378;2022-08-19T15:14:59;1.25;1.00;0.75
73687;PMS7003;62257;48.376;-4.378;2022-08-19T15:17:24;0.50;0.50;0.00
73687;PMS7003;62257;48.376;-4.378;2022-08-19T15:19:50;2.00;1.00;1.00
73687;PMS7003;62257;48.376;-4.378;2022-08-19T15:22:16;2.75;1.00;0.75
73687;PMS7003;62257;48.376;-4.378;2022-08-19T15:24:41;5.00;0.75;0.00
73687;PMS7003;62257;48.376;-4.378;2022-08-19T15:27:10;4.00;1.00;0.25
73687;PMS7003;62257;48.376;-4.378;2022-08-19T15:29:36;3.00;1.75;1.00
73687;PMS7003;62257;48.376;-4.378;2022-08-19T15:32:02;0.00;0.00;0.00
73687;PMS7003;62257;48.376;-4.378;2022-08-19T15:34:27;1.50;1.50;1.00
73687;PMS7003;62257;48.376;-4.378;2022-08-19T15:36:55;1.50;1.00;0.50
73687;PMS7003;62257;48.376;-4.378;2022-08-19T15:39:23;3.00;1.00;1.00
73687;PMS7003;62257;48.376;-4.378;2022-08-19T15:41:48;4.00;1.25;1.00
73687;PMS7003;62257;48.376;-4.378;2022-08-19T15:44:14;2.50;1.50;1.00
73687;PMS7003;62257;48.376;-4.378;2022-08-19T15:46:42;4.25;1.00;1.00
73687;PMS7003;62257;48.376;-4.378;2022-08-19T15:49:10;1.75;1.00;1.00
73687;PMS7003;62257;48.376;-4.378;2022-08-19T15:51:37;2.00;1.00;0.25
73687;PMS7003;62257;48.376;-4.378;2022-08-19T15:54:05;2.25;2.25;1.50
73687;PMS7003;62257;48.376;-4.378;2022-08-19T15:56:33;4.25;2.50;2.00
73687;PMS7003;62257;48.376;-4.378;2022-08-19T15:59:17;3.00;2.75;1.00
73687;PMS7003;62257;48.376;-4.378;2022-08-19T16:02:01;3.25;2.50;1.25
73687;PMS7003;62257;48.376;-4.378;2022-08-19T16:04:46;2.50;1.00;1.00
73687;PMS7003;62257;48.376;-4.378;2022-08-19T16:07:30;2.25;1.25;1.00
73687;PMS7003;62257;48.376;-4.378;2022-08-19T16:09:55;4.75;2.25;2.00
73687;PMS7003;62257;48.376;-4.378;2022-08-19T16:12:21;1.25;1.00;1.00
73687;PMS7003;62257;48.376;-4.378;2022-08-19T16:14:51;2.00;2.00;1.50
73687;PMS7003;62257;48.376;-4.378;2022-08-19T16:17:17;3.50;1.25;1.00
73687;PMS7003;62257;48.376;-4.378;2022-08-19T16:19:43;5.25;1.00;0.75
73687;PMS7003;62257;48.376;-4.378;2022-08-19T16:22:08;2.25;1.00;0.75
73687;PMS7003;62257;48.376;-4.378;2022-08-19T16:24:34;1.50;1.50;1.00
73687;PMS7003;62257;48.376;-4.378;2022-08-19T16:26:59;1.00;1.00;1.00
73687;PMS7003;62257;48.376;-4.378;2022-08-19T16:29:25;2.75;0.75;0.50
73687;PMS7003;62257;48.376;-4.378;2022-08-19T16:31:52;4.25;1.75;1.00
73687;PMS7003;62257;48.376;-4.378;2022-08-19T16:34:19;2.00;2.00;1.00
73687;PMS7003;62257;48.376;-4.378;2022-08-19T16:36:45;3.50;2.75;1.00
73687;PMS7003;62257;48.376;-4.378;2022-08-19T16:39:11;2.00;1.00;1.00
73687;PMS7003;62257;48.376;-4.378;2022-08-19T16:41:38;2.00;2.00;1.50
73687;PMS7003;62257;48.376;-4.378;2022-08-19T16:44:05;1.75;1.75;1.25
73687;PMS7003;62257;48.376;-4.378;2022-08-19T16:46:32;2.00;1.50;1.25
73687;PMS7003;62257;48.376;-4.378;2022-08-19T16:48:57;3.00;1.25;1.00
73687;PMS7003;62257;48.376;-4.378;2022-08-19T16:51:23;4.75;1.75;1.00
73687;PMS7003;62257;48.376;-4.378;2022-08-19T16:53:48;2.00;2.00;1.00
73687;PMS7003;62257;48.376;-4.378;2022-08-19T16:56:16;3.00;3.00;2.00
73687;PMS7003;62257;48.376;-4.378;2022-08-19T16:58:43;1.50;1.50;1.00
73687;PMS7003;62257;48.376;-4.378;2022-08-19T17:01:08;4.00;1.75;1.00
73687;PMS7003;62257;48.376;-4.378;2022-08-19T17:03:35;4.00;3.00;2.00
73687;PMS7003;62257;48.376;-4.378;2022-08-19T17:06:07;1.75;1.00;0.75
73687;PMS7003;62257;48.376;-4.378;2022-08-19T17:08:35;2.50;2.00;1.00
73687;PMS7003;62257;48.376;-4.378;2022-08-19T17:11:01;5.50;4.00;3.00
73687;PMS7003;62257;48.376;-4.378;2022-08-19T17:13:27;7.25;2.50;2.00
73687;PMS7003;62257;48.376;-4.378;2022-08-19T17:15:54;3.25;2.00;1.75
73687;PMS7003;62257;48.376;-4.378;2022-08-19T17:18:20;4.00;3.75;3.50
73687;PMS7003;62257;48.376;-4.378;2022-08-19T17:20:46;3.25;2.00;1.00
73687;PMS7003;62257;48.376;-4.378;2022-08-19T17:23:12;4.50;2.00;1.00
73687;PMS7003;62257;48.376;-4.378;2022-08-19T17:25:38;3.25;1.75;1.25
73687;PMS7003;62257;48.376;-4.378;2022-08-19T17:28:11;4.00;2.25;2.00
73687;PMS7003;62257;48.376;-4.378;2022-08-19T17:30:42;5.00;2.00;2.00
73687;PMS7003;62257;48.376;-4.378;2022-08-19T17:33:08;1.75;1.00;1.00
73687;PMS7003;62257;48.376;-4.378;2022-08-19T17:35:34;2.00;2.00;2.00
73687;PMS7003;62257;48.376;-4.378;2022-08-19T17:38:04;6.00;2.75;2.00
73687;PMS7003;62257;48.376;-4.378;2022-08-19T17:40:31;4.00;2.50;2.00
73687;PMS7003;62257;48.376;-4.378;2022-08-19T17:42:57;2.50;2.00;1.25
73687;PMS7003;62257;48.376;-4.378;2022-08-19T17:45:23;1.75;1.75;1.00
73687;PMS7003;62257;48.376;-4.378;2022-08-19T17:47:48;3.00;2.00;1.00
73687;PMS7003;62257;48.376;-4.378;2022-08-19T17:50:14;5.25;3.00;1.75
73687;PMS7003;62257;48.376;-4.378;2022-08-19T17:52:40;3.00;2.00;1.75
73687;PMS7003;62257;48.376;-4.378;2022-08-19T17:55:08;3.50;3.50;2.50
73687;PMS7003;62257;48.376;-4.378;2022-08-19T17:57:34;3.75;1.25;1.00
73687;PMS7003;62257;48.376;-4.378;2022-08-19T18:00:00;4.75;2.50;1.75
73687;PMS7003;62257;48.376;-4.378;2022-08-19T18:02:25;2.75;2.00;1.25
73687;PMS7003;62257;48.376;-4.378;2022-08-19T18:04:51;2.25;2.25;1.50
73687;PMS7003;62257;48.376;-4.378;2022-08-19T18:07:17;4.00;2.00;1.25
73687;PMS7003;62257;48.376;-4.378;2022-08-19T18:09:45;2.00;2.00;1.75
73687;PMS7003;62257;48.376;-4.378;2022-08-19T18:12:19;8.50;2.00;1.50
73687;PMS7003;62257;48.376;-4.378;2022-08-19T18:14:47;10.75;4.00;3.00
73687;PMS7003;62257;48.376;-4.378;2022-08-19T18:17:13;4.25;0.00;0.00
73687;PMS7003;62257;48.376;-4.378;2022-08-19T18:19:41;5.50;2.00;2.00
73687;PMS7003;62257;48.376;-4.378;2022-08-19T18:22:07;2.00;1.50;0.75
73687;PMS7003;62257;48.376;-4.378;2022-08-19T18:24:36;3.75;2.75;2.50
73687;PMS7003;62257;48.376;-4.378;2022-08-19T18:27:02;1.00;1.00;0.00
73687;PMS7003;62257;48.376;-4.378;2022-08-19T18:29:28;3.75;2.25;1.25
73687;PMS7003;62257;48.376;-4.378;2022-08-19T18:31:57;2.75;2.00;1.00
73687;PMS7003;62257;48.376;-4.378;2022-08-19T18:34:23;2.00;1.50;1.00
73687;PMS7003;62257;48.376;-4.378;2022-08-19T18:36:48;3.00;2.00;1.50
73687;PMS7003;62257;48.376;-4.378;2022-08-19T18:39:13;5.50;3.75;3.00
73687;PMS7003;62257;48.376;-4.378;2022-08-19T18:41:57;3.25;2.50;1.50
73687;PMS7003;62257;48.376;-4.378;2022-08-19T18:44:41;3.25;1.50;1.00
73687;PMS7003;62257;48.376;-4.378;2022-08-19T18:47:25;3.00;2.00;1.75
73687;PMS7003;62257;48.376;-4.378;2022-08-19T18:50:09;3.75;3.00;2.25
73687;PMS7003;62257;48.376;-4.378;2022-08-19T18:52:37;3.50;2.25;2.00
73687;PMS7003;62257;48.376;-4.378;2022-08-19T18:55:04;7.25;3.25;2.25
73687;PMS7003;62257;48.376;-4.378;2022-08-19T18:57:31;3.00;3.00;2.00
73687;PMS7003;62257;48.376;-4.378;2022-08-19T18:59:56;8.75;3.00;2.00
73687;PMS7003;62257;48.376;-4.378;2022-08-19T19:02:22;6.00;3.50;2.50
73687;PMS7003;62257;48.376;-4.378;2022-08-19T19:04:48;5.25;2.75;2.00
73687;PMS7003;62257;48.376;-4.378;2022-08-19T19:07:13;3.25;3.00;2.00
73687;PMS7003;62257;48.376;-4.378;2022-08-19T19:09:39;4.00;2.25;1.75
73687;PMS7003;62257;48.376;-4.378;2022-08-19T19:12:08;8.25;3.50;2.25
73687;PMS7003;62257;48.376;-4.378;2022-08-19T19:14:38;4.00;3.50;3.00
73687;PMS7003;62257;48.376;-4.378;2022-08-19T19:17:07;3.75;2.75;2.50
73687;PMS7003;62257;48.376;-4.378;2022-08-19T19:19:38;3.50;2.00;1.00
73687;PMS7003;62257;48.376;-4.378;2022-08-19T19:22:06;8.25;4.25;2.50
73687;PMS7003;62257;48.376;-4.378;2022-08-19T19:24:35;3.75;3.75;2.00
73687;PMS7003;62257;48.376;-4.378;2022-08-19T19:27:02;7.00;3.00;2.25
73687;PMS7003;62257;48.376;-4.378;2022-08-19T19:29:31;5.00;2.50;1.75
73687;PMS7003;62257;48.376;-4.378;2022-08-19T19:31:56;3.75;3.25;2.50
73687;PMS7003;62257;48.376;-4.378;2022-08-19T19:34:22;5.75;3.75;2.50
73687;PMS7003;62257;48.376;-4.378;2022-08-19T19:36:48;8.50;4.50;2.50
73687;PMS7003;62257;48.376;-4.378;2022-08-19T19:39:15;2.50;2.50;2.25
73687;PMS7003;62257;48.376;-4.378;2022-08-19T19:41:41;4.25;2.75;2.25
73687;PMS7003;62257;48.376;-4.378;2022-08-19T19:44:07;5.00;3.75;2.25
73687;PMS7003;62257;48.376;-4.378;2022-08-19T19:46:33;8.00;4.25;2.50
73687;PMS7003;62257;48.376;-4.378;2022-08-19T19:49:00;1.75;1.50;0.50
73687;PMS7003;62257;48.376;-4.378;2022-08-19T19:51:26;7.50;2.75;2.25
73687;PMS7003;62257;48.376;-4.378;2022-08-19T19:53:53;4.00;3.50;2.25
73687;PMS7003;62257;48.376;-4.378;2022-08-19T19:56:19;6.75;3.00;2.50
73687;PMS7003;62257;48.376;-4.378;2022-08-19T19:58:46;8.00;3.50;2.50
73687;PMS7003;62257;48.376;-4.378;2022-08-19T20:01:13;4.75;4.00;2.50
73687;PMS7003;62257;48.376;-4.378;2022-08-19T20:03:39;8.00;5.00;4.00
73687;PMS7003;62257;48.376;-4.378;2022-08-19T20:06:05;9.50;5.50;4.00
73687;PMS7003;62257;48.376;-4.378;2022-08-19T20:08:31;6.00;3.75;3.00
73687;PMS7003;62257;48.376;-4.378;2022-08-19T20:11:27;4.75;4.00;3.00
73687;PMS7003;62257;48.376;-4.378;2022-08-19T20:13:59;5.75;5.00;3.25
73687;PMS7003;62257;48.376;-4.378;2022-08-19T20:16:27;6.50;4.25;3.25
73687;PMS7003;62257;48.376;-4.378;2022-08-19T20:18:54;5.25;4.25;3.00
73687;PMS7003;62257;48.376;-4.378;2022-08-19T20:21:21;6.25;3.00;3.00
73687;PMS7003;62257;48.376;-4.378;2022-08-19T20:23:48;6.50;4.00;3.00
73687;PMS7003;62257;48.376;-4.378;2022-08-19T20:26:13;4.00;3.00;2.25
73687;PMS7003;62257;48.376;-4.378;2022-08-19T20:28:42;5.25;4.00;3.00
73687;PMS7003;62257;48.376;-4.378;2022-08-19T20:31:07;4.75;2.50;2.00
73687;PMS7003;62257;48.376;-4.378;2022-08-19T20:33:33;5.25;3.00;3.00
73687;PMS7003;62257;48.376;-4.378;2022-08-19T20:35:58;8.75;6.50;4.00
73687;PMS7003;62257;48.376;-4.378;2022-08-19T20:38:24;6.25;3.75;3.00
73687;PMS7003;62257;48.376;-4.378;2022-08-19T20:40:49;9.25;6.75;4.00
73687;PMS7003;62257;48.376;-4.378;2022-08-19T20:43:15;7.00;4.25;3.25
73687;PMS7003;62257;48.376;-4.378;2022-08-19T20:45:41;5.00;4.50;3.00
73687;PMS7003;62257;48.376;-4.378;2022-08-19T20:48:07;7.25;4.25;3.50
73687;PMS7003;62257;48.376;-4.378;2022-08-19T20:50:34;3.00;3.00;3.00
73687;PMS7003;62257;48.376;-4.378;2022-08-19T20:53:07;4.75;4.75;3.00
73687;PMS7003;62257;48.376;-4.378;2022-08-19T20:55:33;8.00;5.00;3.00
73687;PMS7003;62257;48.376;-4.378;2022-08-19T20:57:59;7.25;5.50;4.00
73687;PMS7003;62257;48.376;-4.378;2022-08-19T21:00:24;8.50;5.00;3.75
73687;PMS7003;62257;48.376;-4.378;2022-08-19T21:02:50;10.75;6.00;4.00
73687;PMS7003;62257;48.376;-4.378;2022-08-19T21:05:15;6.50;4.25;3.50
73687;PMS7003;62257;48.376;-4.378;2022-08-19T21:07:40;4.75;3.75;3.25
73687;PMS7003;62257;48.376;-4.378;2022-08-19T21:10:06;4.75;4.75;3.00
73687;PMS7003;62257;48.376;-4.378;2022-08-19T21:12:32;5.25;4.00;3.75
73687;PMS7003;62257;48.376;-4.378;2022-08-19T21:14:57;5.00;4.00;3.00
73687;PMS7003;62257;48.376;-4.378;2022-08-19T21:17:23;6.25;5.00;3.00
73687;PMS7003;62257;48.376;-4.378;2022-08-19T21:19:48;4.00;3.50;3.00
73687;PMS7003;62257;48.376;-4.378;2022-08-19T21:22:13;6.00;4.50;3.00
73687;PMS7003;62257;48.376;-4.378;2022-08-19T21:24:39;7.00;5.75;3.25
73687;PMS7003;62257;48.376;-4.378;2022-08-19T21:27:06;9.00;5.50;4.00
73687;PMS7003;62257;48.376;-4.378;2022-08-19T21:29:31;10.00;5.25;4.00
73687;PMS7003;62257;48.376;-4.378;2022-08-19T21:32:00;5.75;5.25;4.00
73687;PMS7003;62257;48.376;-4.378;2022-08-19T21:34:26;8.00;5.25;3.00
73687;PMS7003;62257;48.376;-4.378;2022-08-19T21:36:51;5.50;5.00;4.00
73687;PMS7003;62257;48.376;-4.378;2022-08-19T21:39:16;5.00;4.75;3.25
73687;PMS7003;62257;48.376;-4.378;2022-08-19T21:41:42;7.75;4.00;3.00
73687;PMS7003;62257;48.376;-4.378;2022-08-19T21:44:07;7.50;5.75;4.00
73687;PMS7003;62257;48.376;-4.378;2022-08-19T21:46:33;7.25;6.00;3.75
73687;PMS7003;62257;48.376;-4.378;2022-08-19T21:48:58;6.25;5.75;3.75
73687;PMS7003;62257;48.376;-4.378;2022-08-19T21:51:24;5.00;5.00;3.75
73687;PMS7003;62257;48.376;-4.378;2022-08-19T21:53:49;8.75;6.75;4.75
73687;PMS7003;62257;48.376;-4.378;2022-08-19T21:56:15;7.25;6.00;4.75
73687;PMS7003;62257;48.376;-4.378;2022-08-19T21:58:40;3.25;3.25;2.75
73687;PMS7003;62257;48.376;-4.378;2022-08-19T22:01:05;6.00;4.50;3.75
73687;PMS7003;62257;48.376;-4.378;2022-08-19T22:03:35;7.75;4.00;3.00
73687;PMS7003;62257;48.376;-4.378;2022-08-19T22:06:01;10.50;5.75;4.00
73687;PMS7003;62257;48.376;-4.378;2022-08-19T22:08:27;4.00;4.00;3.00
73687;PMS7003;62257;48.376;-4.378;2022-08-19T22:10:53;4.00;2.50;2.00
73687;PMS7003;62257;48.376;-4.378;2022-08-19T22:13:19;6.00;5.25;4.00
73687;PMS7003;62257;48.376;-4.378;2022-08-19T22:15:45;6.00;4.00;3.00
73687;PMS7003;62257;48.376;-4.378;2022-08-19T22:18:12;4.00;3.25;2.00
73687;PMS7003;62257;48.376;-4.378;2022-08-19T22:20:41;8.00;5.00;4.00
73687;PMS7003;62257;48.376;-4.378;2022-08-19T22:23:07;5.50;4.50;3.50
73687;PMS7003;62257;48.376;-4.378;2022-08-19T22:25:33;6.50;5.50;4.50
73687;PMS7003;62257;48.376;-4.378;2022-08-19T22:28:03;7.00;4.00;3.00
73687;PMS7003;62257;48.376;-4.378;2022-08-19T22:30:30;8.50;4.50;3.75
73687;PMS7003;62257;48.376;-4.378;2022-08-19T22:32:57;6.25;5.00;4.00
73687;PMS7003;62257;48.376;-4.378;2022-08-19T22:35:28;3.00;3.00;2.75
73687;PMS7003;62257;48.376;-4.378;2022-08-19T22:37:55;6.75;5.00;4.00
73687;PMS7003;62257;48.376;-4.378;2022-08-19T22:40:23;7.00;5.25;3.75
73687;PMS7003;62257;48.376;-4.378;2022-08-19T22:42:59;7.25;4.00;2.00
73687;PMS7003;62257;48.376;-4.378;2022-08-19T22:45:28;6.50;5.25;3.75
73687;PMS7003;62257;48.376;-4.378;2022-08-19T22:47:54;6.75;5.00;3.00
73687;PMS7003;62257;48.376;-4.378;2022-08-19T22:50:20;4.50;4.00;2.50
73687;PMS7003;62257;48.376;-4.378;2022-08-19T22:52:45;5.75;4.75;2.75
73687;PMS7003;62257;48.376;-4.378;2022-08-19T22:55:10;4.50;4.00;3.25
73687;PMS7003;62257;48.376;-4.378;2022-08-19T22:57:36;4.00;4.00;3.25
73687;PMS7003;62257;48.376;-4.378;2022-08-19T23:00:03;5.75;3.00;3.00
73687;PMS7003;62257;48.376;-4.378;2022-08-19T23:02:33;4.25;4.00;3.25
73687;PMS7003;62257;48.376;-4.378;2022-08-19T23:05:03;8.00;4.00;3.00
73687;PMS7003;62257;48.376;-4.378;2022-08-19T23:07:30;5.75;5.50;3.75
73687;PMS7003;62257;48.376;-4.378;2022-08-19T23:09:56;6.00;4.25;3.50
73687;PMS7003;62257;48.376;-4.378;2022-08-19T23:12:28;7.25;4.75;3.00
73687;PMS7003;62257;48.376;-4.378;2022-08-19T23:15:06;3.50;3.50;3.00
73687;PMS7003;62257;48.376;-4.378;2022-08-19T23:17:36;7.75;5.00;3.75
73687;PMS7003;62257;48.376;-4.378;2022-08-19T23:20:04;7.00;3.00;3.00
73687;PMS7003;62257;48.376;-4.378;2022-08-19T23:22:32;4.00;4.00;2.50
73687;PMS7003;62257;48.376;-4.378;2022-08-19T23:25:05;7.75;3.50;3.00
73687;PMS7003;62257;48.376;-4.378;2022-08-19T23:27:33;6.75;5.00;3.25
73687;PMS7003;62257;48.376;-4.378;2022-08-19T23:30:17;4.50;4.00;3.00
73687;PMS7003;62257;48.376;-4.378;2022-08-19T23:32:55;6.25;5.50;4.00
73687;PMS7003;62257;48.376;-4.378;2022-08-19T23:35:23;4.25;4.25;3.00
73687;PMS7003;62257;48.376;-4.378;2022-08-19T23:37:49;6.00;5.00;3.25
73687;PMS7003;62257;48.376;-4.378;2022-08-19T23:40:18;7.00;3.50;3.00